Time;durP1;ratioP1;P1;durP2;ratioP2;P2;SDS_P1;SDS_P2;PMS_P1;PMS_P2;Temp;Humidity;BMP_temperature;BMP_pressure;BME280_temperature;BME280_humidity;BME280_pressure;Samples;Min_cycle;Max_cycle;Signal;HPM_P1;HPM_P2
2023/09/11 00:00:58;;;;;;;16.52;8.90;;;;;;;;;;4960815;28;20278;-74
2023/09/11 00:03:24;;;;;;;14.88;7.70;;;;;;;;;;4954617;28;20557;-73
2023/09/11 00:05:50;;;;;;;22.00;8.77;;;;;;;;;;4964706;28;20034;-74
2023/09/11 00:08:15;;;;;;;21.73;7.93;;;;;;;;;;4975344;28;20014;-74
2023/09/11 00:10:40;;;;;;;16.80;8.10;;;;;;;;;;4969696;28;20417;-74
2023/09/11 00:13:05;;;;;;;21.03;8.17;;;;;;;;;;4972713;28;20022;-74
2023/09/11 00:15:32;;;;;;;14.37;7.20;;;;;;;;;;4977763;28;20267;-74
2023/09/11 00:17:57;;;;;;;18.02;7.85;;;;;;;;;;4965091;28;20065;-73
2023/09/11 00:20:23;;;;;;;23.48;8.45;;;;;;;;;;4969666;28;20486;-73
2023/09/11 00:22:48;;;;;;;23.83;7.33;;;;;;;;;;4967859;28;20026;-74
2023/09/11 00:25:14;;;;;;;19.75;7.38;;;;;;;;;;4969137;28;20022;-74
2023/09/11 00:27:39;;;;;;;15.02;7.05;;;;;;;;;;4975005;28;20474;-74
2023/09/11 00:30:05;;;;;;;26.33;7.75;;;;;;;;;;4986485;28;20056;-74
2023/09/11 00:32:30;;;;;;;13.90;7.15;;;;;;;;;;4972176;28;20023;-74
2023/09/11 00:34:56;;;;;;;22.40;7.63;;;;;;;;;;4972818;28;20072;-74
2023/09/11 00:37:21;;;;;;;15.98;7.07;;;;;;;;;;4968342;28;20320;-74
2023/09/11 00:39:46;;;;;;;19.15;7.10;;;;;;;;;;4964276;28;20023;-74
2023/09/11 00:42:11;;;;;;;21.73;8.25;;;;;;;;;;4964821;28;20025;-74
2023/09/11 00:44:37;;;;;;;15.17;7.43;;;;;;;;;;4967510;28;20035;-73
2023/09/11 00:47:02;;;;;;;17.43;7.60;;;;;;;;;;4975285;28;20281;-74
2023/09/11 00:49:27;;;;;;;27.23;7.72;;;;;;;;;;4972582;28;20018;-74
2023/09/11 00:51:53;;;;;;;15.85;8.48;;;;;;;;;;4972653;28;20454;-74
2023/09/11 00:54:19;;;;;;;16.45;8.30;;;;;;;;;;4984952;28;20018;-74
2023/09/11 00:56:45;;;;;;;19.60;9.00;;;;;;;;;;4975477;28;20027;-74
2023/09/11 00:59:11;;;;;;;14.07;8.32;;;;;;;;;;4974674;28;20022;-74
2023/09/11 01:01:36;;;;;;;16.27;9.40;;;;;;;;;;4977098;28;20073;-74
2023/09/11 01:04:02;;;;;;;20.97;11.03;;;;;;;;;;4964378;28;20131;-74
2023/09/11 01:06:27;;;;;;;18.52;8.30;;;;;;;;;;4964399;28;20682;-74
2023/09/11 01:08:55;;;;;;;23.67;9.35;;;;;;;;;;4973602;28;20018;-73
2023/09/11 01:11:20;;;;;;;15.70;8.18;;;;;;;;;;4971771;28;20113;-74
2023/09/11 01:13:45;;;;;;;23.20;9.47;;;;;;;;;;4969293;28;20110;-74
2023/09/11 01:16:13;;;;;;;17.33;8.68;;;;;;;;;;4969281;28;20638;-74
2023/09/11 01:18:39;;;;;;;17.23;8.80;;;;;;;;;;4982446;28;20389;-74
2023/09/11 01:21:07;;;;;;;20.50;8.40;;;;;;;;;;4969878;28;20020;-74
2023/09/11 01:23:49;;;;;;;17.65;8.88;;;;;;;;;;4965058;28;20027;-73
2023/09/11 01:26:33;;;;;;;20.45;9.10;;;;;;;;;;4971294;28;20027;-74
2023/09/11 01:29:02;;;;;;;24.83;8.15;;;;;;;;;;4971278;28;20031;-74
2023/09/11 01:31:29;;;;;;;27.35;8.38;;;;;;;;;;4969729;28;20042;-74
2023/09/11 01:33:54;;;;;;;23.20;8.98;;;;;;;;;;4968535;28;20101;-73
2023/09/11 01:36:19;;;;;;;25.00;9.13;;;;;;;;;;4966404;28;20554;-74
2023/09/11 01:38:44;;;;;;;27.90;8.47;;;;;;;;;;4956041;28;20286;-74
2023/09/11 01:41:10;;;;;;;18.92;7.20;;;;;;;;;;4967321;28;20095;-74
2023/09/11 01:43:36;;;;;;;20.38;7.57;;;;;;;;;;4971468;28;20031;-74
2023/09/11 01:46:02;;;;;;;21.95;8.40;;;;;;;;;;4966758;28;20107;-73
2023/09/11 01:48:30;;;;;;;23.17;7.60;;;;;;;;;;4963309;28;20102;-74
2023/09/11 01:50:56;;;;;;;16.30;7.88;;;;;;;;;;4968010;28;20061;-73
2023/09/11 01:53:21;;;;;;;17.45;7.90;;;;;;;;;;4975609;28;20061;-73
2023/09/11 01:55:47;;;;;;;24.55;8.50;;;;;;;;;;4975319;28;20117;-73
2023/09/11 01:58:12;;;;;;;18.30;7.28;;;;;;;;;;4970345;28;20026;-74
2023/09/11 02:00:37;;;;;;;22.95;8.18;;;;;;;;;;4968697;28;20031;-74
2023/09/11 02:03:02;;;;;;;21.70;7.90;;;;;;;;;;4968162;28;20542;-74
2023/09/11 02:05:27;;;;;;;27.58;8.00;;;;;;;;;;4975906;28;20030;-73
2023/09/11 02:07:53;;;;;;;20.03;7.83;;;;;;;;;;4971688;28;20019;-73
2023/09/11 02:10:18;;;;;;;22.33;7.70;;;;;;;;;;4965645;28;20766;-73
2023/09/11 02:12:43;;;;;;;25.03;8.67;;;;;;;;;;4976032;28;20064;-73
2023/09/11 02:15:08;;;;;;;18.40;7.38;;;;;;;;;;4970946;28;20274;-73
2023/09/11 02:17:33;;;;;;;17.55;7.88;;;;;;;;;;4964983;28;20015;-73
2023/09/11 02:19:59;;;;;;;19.77;7.83;;;;;;;;;;4966601;28;20027;-74
2023/09/11 02:22:24;;;;;;;22.10;6.80;;;;;;;;;;4959227;28;20295;-74
2023/09/11 02:24:49;;;;;;;23.20;6.90;;;;;;;;;;4958465;28;20019;-74
2023/09/11 02:27:14;;;;;;;17.15;7.82;;;;;;;;;;4979683;28;20239;-74
2023/09/11 02:29:39;;;;;;;19.30;8.77;;;;;;;;;;4974080;28;20015;-73
2023/09/11 02:32:05;;;;;;;17.57;7.70;;;;;;;;;;4971535;28;20508;-74
2023/09/11 02:34:30;;;;;;;19.25;7.57;;;;;;;;;;4968078;28;20027;-73
2023/09/11 02:36:55;;;;;;;20.17;7.53;;;;;;;;;;4969666;28;20030;-73
2023/09/11 02:39:20;;;;;;;18.37;7.30;;;;;;;;;;4965908;28;20031;-73
2023/09/11 02:41:46;;;;;;;21.93;7.77;;;;;;;;;;4961047;28;20278;-74
2023/09/11 02:44:11;;;;;;;14.00;6.93;;;;;;;;;;4952497;28;20486;-74
2023/09/11 02:46:36;;;;;;;18.33;7.70;;;;;;;;;;4967785;28;20098;-74
2023/09/11 02:49:01;;;;;;;26.00;7.88;;;;;;;;;;4975232;28;20272;-73
2023/09/11 02:51:28;;;;;;;16.83;7.37;;;;;;;;;;4964381;28;20039;-74
2023/09/11 02:53:53;;;;;;;15.75;7.35;;;;;;;;;;4962830;28;20380;-74
2023/09/11 02:56:18;;;;;;;13.93;7.15;;;;;;;;;;4966626;28;20460;-74
2023/09/11 02:58:43;;;;;;;20.87;8.07;;;;;;;;;;4971658;28;20045;-73
2023/09/11 03:01:09;;;;;;;22.77;8.30;;;;;;;;;;4975361;28;20517;-73
2023/09/11 03:03:34;;;;;;;16.40;8.10;;;;;;;;;;4970582;28;20292;-73
2023/09/11 03:06:00;;;;;;;21.33;8.00;;;;;;;;;;4969673;28;20389;-73
2023/09/11 03:08:25;;;;;;;22.27;8.35;;;;;;;;;;4970207;28;20313;-73
2023/09/11 03:10:50;;;;;;;23.98;8.80;;;;;;;;;;4971336;28;20023;-73
2023/09/11 03:13:16;;;;;;;21.90;9.33;;;;;;;;;;4960961;28;20022;-73
2023/09/11 03:15:44;;;;;;;15.45;7.57;;;;;;;;;;4985175;28;20023;-73
2023/09/11 03:18:09;;;;;;;17.80;8.23;;;;;;;;;;4970678;28;20026;-73
2023/09/11 03:20:34;;;;;;;16.00;8.60;;;;;;;;;;4967873;28;20386;-73
2023/09/11 03:23:00;;;;;;;30.00;8.80;;;;;;;;;;4969828;28;20601;-73
2023/09/11 03:25:29;;;;;;;18.77;8.87;;;;;;;;;;4963894;28;20088;-73
2023/09/11 03:27:54;;;;;;;19.70;7.38;;;;;;;;;;4965510;28;20062;-73
2023/09/11 03:30:19;;;;;;;21.75;8.88;;;;;;;;;;4974265;28;20065;-73
2023/09/11 03:32:44;;;;;;;20.02;8.85;;;;;;;;;;4964114;28;20031;-73
2023/09/11 03:35:10;;;;;;;22.83;9.50;;;;;;;;;;4961993;28;20023;-73
2023/09/11 03:37:35;;;;;;;16.50;8.32;;;;;;;;;;4956426;28;20310;-73
2023/09/11 03:40:05;;;;;;;14.57;7.82;;;;;;;;;;4973750;28;20034;-73
2023/09/11 03:42:30;;;;;;;15.70;7.93;;;;;;;;;;4974258;28;20030;-73
2023/09/11 03:44:55;;;;;;;20.33;8.77;;;;;;;;;;4966134;28;20026;-74
2023/09/11 03:47:21;;;;;;;17.03;7.70;;;;;;;;;;4965103;28;20099;-73
2023/09/11 03:49:46;;;;;;;20.83;7.75;;;;;;;;;;4962022;28;20290;-73
2023/09/11 03:52:11;;;;;;;16.37;7.50;;;;;;;;;;4958287;28;20099;-73
2023/09/11 03:54:36;;;;;;;19.17;7.50;;;;;;;;;;4963997;28;20284;-73
2023/09/11 03:57:01;;;;;;;22.60;8.10;;;;;;;;;;4959414;28;20265;-73
2023/09/11 03:59:27;;;;;;;19.25;7.65;;;;;;;;;;4980713;28;20269;-74
2023/09/11 04:01:52;;;;;;;16.40;7.67;;;;;;;;;;4973644;28;20046;-74
2023/09/11 04:04:17;;;;;;;16.43;7.97;;;;;;;;;;4967538;28;20053;-74
2023/09/11 04:06:42;;;;;;;19.47;7.90;;;;;;;;;;4956460;28;20910;-74
2023/09/11 04:09:07;;;;;;;13.30;7.00;;;;;;;;;;4968060;28;20277;-73
2023/09/11 04:11:32;;;;;;;24.07;8.00;;;;;;;;;;4955198;28;20163;-73
2023/09/11 04:13:58;;;;;;;22.30;9.40;;;;;;;;;;4954732;28;20074;-73
2023/09/11 04:16:23;;;;;;;14.60;7.90;;;;;;;;;;4975349;28;20323;-73
2023/09/11 04:18:48;;;;;;;21.50;7.93;;;;;;;;;;4974721;28;20034;-73
2023/09/11 04:21:13;;;;;;;19.10;7.43;;;;;;;;;;4972143;28;20749;-73
2023/09/11 04:23:38;;;;;;;16.38;7.40;;;;;;;;;;4965497;28;20318;-73
2023/09/11 04:26:06;;;;;;;19.60;7.40;;;;;;;;;;4973968;28;20401;-73
2023/09/11 04:28:31;;;;;;;21.52;7.10;;;;;;;;;;4974508;28;20058;-73
2023/09/11 04:30:57;;;;;;;19.13;7.37;;;;;;;;;;4983646;28;20492;-73
2023/09/11 04:33:22;;;;;;;23.53;8.70;;;;;;;;;;4975714;28;20027;-73
2023/09/11 04:35:47;;;;;;;19.07;7.37;;;;;;;;;;4970473;28;20031;-73
2023/09/11 04:38:12;;;;;;;17.83;7.70;;;;;;;;;;4979896;28;20288;-73
2023/09/11 04:40:38;;;;;;;17.43;7.90;;;;;;;;;;4972293;28;20278;-73
2023/09/11 04:43:04;;;;;;;27.63;7.63;;;;;;;;;;4973823;28;20402;-73
2023/09/11 04:45:29;;;;;;;22.38;6.90;;;;;;;;;;4965953;28;20498;-73
2023/09/11 04:47:54;;;;;;;13.98;7.28;;;;;;;;;;4971230;28;20062;-73
2023/09/11 04:50:20;;;;;;;19.50;7.07;;;;;;;;;;4975130;28;20015;-73
2023/09/11 04:52:45;;;;;;;29.60;7.67;;;;;;;;;;4971224;28;20479;-73
2023/09/11 04:55:10;;;;;;;17.67;7.63;;;;;;;;;;4967930;28;20030;-73
2023/09/11 04:57:36;;;;;;;23.58;7.65;;;;;;;;;;4973013;28;20329;-73
2023/09/11 05:00:06;;;;;;;30.20;8.10;;;;;;;;;;4964995;28;20025;-73
2023/09/11 05:02:31;;;;;;;24.70;7.15;;;;;;;;;;4968469;28;20437;-73
2023/09/11 05:04:56;;;;;;;16.93;7.53;;;;;;;;;;4977472;28;20051;-73
2023/09/11 05:07:21;;;;;;;20.90;6.83;;;;;;;;;;4967827;28;20274;-73
2023/09/11 05:09:46;;;;;;;36.73;7.53;;;;;;;;;;4974822;28;20019;-74
2023/09/11 05:12:12;;;;;;;25.67;7.32;;;;;;;;;;4975623;28;20251;-73
2023/09/11 05:14:37;;;;;;;21.40;7.80;;;;;;;;;;4968049;28;20453;-73
2023/09/11 05:17:02;;;;;;;22.25;8.02;;;;;;;;;;4967691;28;20274;-73
2023/09/11 05:19:28;;;;;;;19.55;6.85;;;;;;;;;;4964050;28;20035;-73
2023/09/11 05:21:53;;;;;;;18.40;7.80;;;;;;;;;;4960587;28;21172;-73
2023/09/11 05:24:18;;;;;;;27.13;7.57;;;;;;;;;;4969100;28;20385;-73
2023/09/11 05:26:44;;;;;;;25.40;7.10;;;;;;;;;;4970822;28;20282;-74
2023/09/11 05:29:09;;;;;;;22.37;8.83;;;;;;;;;;4965685;28;20023;-73
2023/09/11 05:31:34;;;;;;;15.77;7.55;;;;;;;;;;4959521;28;20354;-73
2023/09/11 05:33:59;;;;;;;18.87;7.93;;;;;;;;;;4961037;28;20030;-73
2023/09/11 05:36:24;;;;;;;20.57;7.43;;;;;;;;;;4963442;28;20073;-73
2023/09/11 05:38:49;;;;;;;24.50;9.00;;;;;;;;;;4963582;28;20655;-73
2023/09/11 05:41:15;;;;;;;22.63;6.73;;;;;;;;;;4962396;28;20639;-73
2023/09/11 05:43:40;;;;;;;15.68;6.70;;;;;;;;;;4964888;28;20285;-73
2023/09/11 05:46:06;;;;;;;23.58;6.82;;;;;;;;;;4967568;28;20016;-73
2023/09/11 05:48:31;;;;;;;22.73;7.75;;;;;;;;;;4962192;28;20027;-73
2023/09/11 05:50:56;;;;;;;21.20;7.00;;;;;;;;;;4964890;28;20019;-73
2023/09/11 05:53:21;;;;;;;13.07;6.33;;;;;;;;;;4961287;28;20030;-73
2023/09/11 05:55:47;;;;;;;12.73;6.47;;;;;;;;;;4964342;28;20308;-73
2023/09/11 05:58:12;;;;;;;20.77;7.22;;;;;;;;;;4960244;28;20023;-73
2023/09/11 06:00:37;;;;;;;29.27;7.77;;;;;;;;;;4964090;28;20394;-73
2023/09/11 06:03:03;;;;;;;20.53;6.57;;;;;;;;;;4960703;28;20277;-73
2023/09/11 06:05:30;;;;;;;16.00;6.47;;;;;;;;;;4965710;28;20316;-73
2023/09/11 06:07:56;;;;;;;22.02;8.13;;;;;;;;;;4959909;28;20037;-73
2023/09/11 06:10:21;;;;;;;13.90;7.07;;;;;;;;;;4960443;28;20331;-73
2023/09/11 06:12:47;;;;;;;13.83;6.27;;;;;;;;;;4966574;28;20086;-73
2023/09/11 06:15:13;;;;;;;21.50;7.55;;;;;;;;;;4961543;28;20277;-73
2023/09/11 06:17:38;;;;;;;17.90;6.47;;;;;;;;;;4964133;28;20390;-73
2023/09/11 06:20:09;;;;;;;19.83;6.78;;;;;;;;;;4959867;28;20077;-73
2023/09/11 06:22:34;;;;;;;19.48;6.75;;;;;;;;;;4963469;28;20067;-73
2023/09/11 06:24:59;;;;;;;23.80;6.03;;;;;;;;;;4964636;28;20505;-73
2023/09/11 06:27:25;;;;;;;25.70;7.27;;;;;;;;;;4963741;28;20770;-73
2023/09/11 06:29:51;;;;;;;18.88;6.28;;;;;;;;;;4968476;28;20285;-73
2023/09/11 06:32:16;;;;;;;24.13;7.70;;;;;;;;;;4949850;28;20022;-73
2023/09/11 06:34:41;;;;;;;11.90;6.68;;;;;;;;;;4965063;28;20023;-73
2023/09/11 06:37:09;;;;;;;24.40;6.80;;;;;;;;;;4960871;28;20797;-73
2023/09/11 06:39:34;;;;;;;16.25;6.05;;;;;;;;;;4962495;28;20281;-73
2023/09/11 06:41:59;;;;;;;16.20;6.83;;;;;;;;;;4963614;28;20271;-73
2023/09/11 06:44:24;;;;;;;22.15;6.35;;;;;;;;;;4965147;28;20290;-73
2023/09/11 06:46:49;;;;;;;18.00;7.37;;;;;;;;;;4963151;28;20026;-74
2023/09/11 06:49:15;;;;;;;18.77;6.00;;;;;;;;;;4965001;28;20402;-74
2023/09/11 06:51:40;;;;;;;19.43;6.00;;;;;;;;;;4963183;28;20031;-74
2023/09/11 06:54:09;;;;;;;24.03;5.80;;;;;;;;;;4958727;28;20142;-74
2023/09/11 06:56:34;;;;;;;18.48;5.63;;;;;;;;;;4957302;28;20030;-74
2023/09/11 06:58:59;;;;;;;13.87;5.80;;;;;;;;;;4963773;28;20401;-74
2023/09/11 07:01:24;;;;;;;13.13;6.03;;;;;;;;;;4958906;28;20270;-74
2023/09/11 07:03:49;;;;;;;14.20;5.70;;;;;;;;;;4962402;28;20027;-71
2023/09/11 07:06:15;;;;;;;15.85;6.55;;;;;;;;;;4960522;28;20354;-74
2023/09/11 07:08:40;;;;;;;20.10;6.07;;;;;;;;;;4967853;28;20121;-74
2023/09/11 07:11:05;;;;;;;13.82;6.35;;;;;;;;;;4963184;28;20489;-74
2023/09/11 07:13:30;;;;;;;15.53;6.17;;;;;;;;;;4959181;28;20117;-74
2023/09/11 07:15:56;;;;;;;15.93;5.10;;;;;;;;;;4964441;28;20438;-74
2023/09/11 07:18:22;;;;;;;14.38;5.22;;;;;;;;;;4958418;28;20114;-74
2023/09/11 07:20:47;;;;;;;17.13;5.38;;;;;;;;;;4961026;28;20110;-74
2023/09/11 07:23:13;;;;;;;25.58;5.43;;;;;;;;;;4964389;28;20086;-74
2023/09/11 07:25:38;;;;;;;20.77;4.90;;;;;;;;;;4960645;28;20050;-74
2023/09/11 07:28:03;;;;;;;10.50;4.47;;;;;;;;;;4965829;28;20458;-74
2023/09/11 07:30:28;;;;;;;17.73;6.82;;;;;;;;;;4966185;28;20086;-74
2023/09/11 07:32:53;;;;;;;18.90;5.63;;;;;;;;;;4965389;28;20074;-74
2023/09/11 07:35:19;;;;;;;15.57;4.70;;;;;;;;;;4961077;28;20094;-74
2023/09/11 07:37:44;;;;;;;14.97;4.87;;;;;;;;;;4962769;28;20015;-74
2023/09/11 07:40:09;;;;;;;14.00;4.47;;;;;;;;;;4968146;28;20473;-74
2023/09/11 07:42:36;;;;;;;22.90;4.55;;;;;;;;;;4971943;28;20031;-74
2023/09/11 07:45:01;;;;;;;17.48;4.55;;;;;;;;;;4969060;28;20031;-74
2023/09/11 07:47:26;;;;;;;19.77;5.53;;;;;;;;;;4966383;28;20028;-74
2023/09/11 07:49:53;;;;;;;21.70;5.63;;;;;;;;;;4966341;28;20430;-74
2023/09/11 07:52:18;;;;;;;12.95;5.13;;;;;;;;;;4969378;28;20278;-74
2023/09/11 07:54:43;;;;;;;12.67;5.27;;;;;;;;;;4963122;28;20046;-74
2023/09/11 07:57:08;;;;;;;11.17;4.50;;;;;;;;;;4966956;28;20065;-74
2023/09/11 07:59:33;;;;;;;13.30;4.57;;;;;;;;;;4969872;28;20025;-74
2023/09/11 08:01:59;;;;;;;12.23;4.20;;;;;;;;;;4970443;28;20418;-74
2023/09/11 08:04:24;;;;;;;17.53;4.93;;;;;;;;;;4970593;28;20027;-74
2023/09/11 08:06:49;;;;;;;20.03;4.77;;;;;;;;;;4966484;28;20501;-74
2023/09/11 08:09:14;;;;;;;16.10;5.32;;;;;;;;;;4966606;28;20641;-74
2023/09/11 08:11:40;;;;;;;18.73;4.80;;;;;;;;;;4973576;28;20054;-74
2023/09/11 08:14:06;;;;;;;15.45;5.38;;;;;;;;;;4965722;28;20025;-74
2023/09/11 08:16:31;;;;;;;15.43;4.85;;;;;;;;;;4962213;28;20031;-74
2023/09/11 08:18:57;;;;;;;14.30;4.70;;;;;;;;;;4962934;28;20025;-74
2023/09/11 08:21:22;;;;;;;10.00;5.20;;;;;;;;;;4968637;28;20034;-74
2023/09/11 08:23:47;;;;;;;12.87;4.50;;;;;;;;;;4960215;28;20397;-74
2023/09/11 08:26:12;;;;;;;26.53;4.83;;;;;;;;;;4961071;28;20042;-74
2023/09/11 08:28:37;;;;;;;17.10;5.37;;;;;;;;;;4969286;28;20251;-74
2023/09/11 08:31:03;;;;;;;11.47;4.03;;;;;;;;;;4963746;28;20310;-74
2023/09/11 08:33:28;;;;;;;17.27;5.15;;;;;;;;;;4964377;28;20019;-74
2023/09/11 08:35:54;;;;;;;14.02;5.65;;;;;;;;;;4967632;28;20413;-74
2023/09/11 08:38:19;;;;;;;12.52;5.15;;;;;;;;;;4972166;28;20035;-74
2023/09/11 08:40:44;;;;;;;19.30;5.33;;;;;;;;;;4962063;28;20421;-74
2023/09/11 08:43:10;;;;;;;16.52;5.13;;;;;;;;;;4956944;28;20030;-74
2023/09/11 08:45:36;;;;;;;15.43;4.60;;;;;;;;;;4968133;28;20582;-74
2023/09/11 08:48:04;;;;;;;21.73;4.85;;;;;;;;;;4965525;28;20027;-74
2023/09/11 08:50:34;;;;;;;17.05;4.57;;;;;;;;;;4968239;28;20377;-74
2023/09/11 08:52:59;;;;;;;11.57;4.53;;;;;;;;;;4966523;28;20038;-74
2023/09/11 08:55:25;;;;;;;14.70;4.73;;;;;;;;;;4969052;28;20431;-74
2023/09/11 08:57:50;;;;;;;20.45;5.30;;;;;;;;;;4965545;28;20019;-74
2023/09/11 09:00:16;;;;;;;19.02;5.20;;;;;;;;;;4962868;28;20102;-73
2023/09/11 09:02:42;;;;;;;15.70;5.85;;;;;;;;;;4969176;28;20050;-74
2023/09/11 09:05:07;;;;;;;12.82;5.32;;;;;;;;;;4963928;28;20426;-74
2023/09/11 09:07:33;;;;;;;17.75;4.47;;;;;;;;;;4960072;28;20504;-73
2023/09/11 09:09:58;;;;;;;15.85;4.97;;;;;;;;;;4963288;28;20416;-73
2023/09/11 09:12:25;;;;;;;19.27;5.03;;;;;;;;;;4964387;28;20027;-73
2023/09/11 09:14:50;;;;;;;16.88;4.40;;;;;;;;;;4964022;28;20386;-73
2023/09/11 09:17:15;;;;;;;14.38;4.40;;;;;;;;;;4961214;28;20018;-73
2023/09/11 09:19:40;;;;;;;18.87;4.87;;;;;;;;;;4964771;28;20035;-74
2023/09/11 09:22:06;;;;;;;16.90;5.23;;;;;;;;;;4959399;28;20102;-74
2023/09/11 09:24:31;;;;;;;10.87;4.83;;;;;;;;;;4965020;28;20040;-73
2023/09/11 09:26:57;;;;;;;17.52;5.95;;;;;;;;;;4963546;28;20069;-73
2023/09/11 09:29:23;;;;;;;14.25;4.65;;;;;;;;;;4966328;28;20612;-74
2023/09/11 09:31:48;;;;;;;12.70;4.60;;;;;;;;;;4966945;28;20166;-73
2023/09/11 09:34:13;;;;;;;13.50;4.33;;;;;;;;;;4964469;28;20098;-73
2023/09/11 09:36:48;;;;;;;14.67;5.00;;;;;;;;;;4963708;28;20365;-74
2023/09/11 09:39:13;;;;;;;23.27;5.72;;;;;;;;;;4962485;28;20154;-74
2023/09/11 09:41:39;;;;;;;10.80;4.10;;;;;;;;;;4960150;28;20113;-73
2023/09/11 09:44:04;;;;;;;18.50;5.57;;;;;;;;;;4968918;28;20313;-73
2023/09/11 09:46:29;;;;;;;12.37;4.50;;;;;;;;;;4963755;28;20026;-73
2023/09/11 09:48:55;;;;;;;15.17;5.30;;;;;;;;;;4964143;28;20078;-74
2023/09/11 09:51:21;;;;;;;15.80;5.30;;;;;;;;;;4961372;28;20046;-74
2023/09/11 09:53:46;;;;;;;20.23;4.95;;;;;;;;;;4958836;28;20018;-73
2023/09/11 09:56:12;;;;;;;22.50;5.97;;;;;;;;;;4967876;28;20030;-74
2023/09/11 09:58:41;;;;;;;11.35;5.10;;;;;;;;;;4966279;28;20066;-73
2023/09/11 10:01:07;;;;;;;14.88;5.25;;;;;;;;;;4968412;28;20023;-73
2023/09/11 10:03:42;;;;;;;18.02;5.13;;;;;;;;;;4967302;28;20031;-74
2023/09/11 10:06:08;;;;;;;20.65;5.15;;;;;;;;;;4958280;28;20019;-73
2023/09/11 10:08:34;;;;;;;16.33;5.45;;;;;;;;;;4970510;28;20030;-73
2023/09/11 10:10:59;;;;;;;21.23;5.47;;;;;;;;;;4967573;28;20011;-74
2023/09/11 10:13:27;;;;;;;19.97;4.87;;;;;;;;;;4968779;28;20070;-74
2023/09/11 10:15:53;;;;;;;16.05;5.00;;;;;;;;;;4968734;28;20091;-73
2023/09/11 10:18:18;;;;;;;17.27;4.43;;;;;;;;;;4964445;28;20027;-73
2023/09/11 10:20:50;;;;;;;14.50;4.95;;;;;;;;;;5063725;28;20498;-72
2023/09/11 10:23:16;;;;;;;13.38;4.53;;;;;;;;;;5045472;28;20474;-72
2023/09/11 10:25:43;;;;;;;17.75;4.90;;;;;;;;;;5045882;28;20201;-72
2023/09/11 10:28:10;;;;;;;16.23;5.80;;;;;;;;;;5043246;28;20092;-73
2023/09/11 10:30:41;;;;;;;13.90;4.85;;;;;;;;;;5049898;28;20436;-73
2023/09/11 10:33:09;;;;;;;16.35;5.90;;;;;;;;;;5047231;28;20431;-73
2023/09/11 10:35:38;;;;;;;11.30;4.15;;;;;;;;;;5045899;28;20028;-72
2023/09/11 10:38:04;;;;;;;14.23;4.77;;;;;;;;;;5043181;28;20059;-72
2023/09/11 10:40:31;;;;;;;18.15;5.10;;;;;;;;;;5047721;28;20017;-73
2023/09/11 10:42:56;;;;;;;14.85;4.50;;;;;;;;;;5047699;28;20029;-73
2023/09/11 10:45:28;;;;;;;17.40;5.28;;;;;;;;;;5045245;28;20021;-73
2023/09/11 10:47:53;;;;;;;15.25;4.82;;;;;;;;;;5045302;28;20026;-73
2023/09/11 10:50:18;;;;;;;14.83;5.20;;;;;;;;;;5045560;28;20376;-72
2023/09/11 10:52:46;;;;;;;19.83;4.77;;;;;;;;;;5047604;28;20274;-73
2023/09/11 10:55:13;;;;;;;12.63;4.80;;;;;;;;;;5045238;28;20025;-72
2023/09/11 10:57:38;;;;;;;12.57;4.82;;;;;;;;;;5048921;28;20108;-73
2023/09/11 11:00:08;;;;;;;13.17;4.77;;;;;;;;;;5046821;28;20116;-73
2023/09/11 11:02:34;;;;;;;12.43;4.72;;;;;;;;;;5059593;28;20029;-73
2023/09/11 11:04:59;;;;;;;10.10;5.10;;;;;;;;;;5043581;28;20021;-73
2023/09/11 11:07:25;;;;;;;17.23;5.07;;;;;;;;;;5044666;28;20287;-73
2023/09/11 11:09:51;;;;;;;15.33;4.87;;;;;;;;;;5043964;28;20460;-73
2023/09/11 11:12:30;;;;;;;11.65;4.50;;;;;;;;;;5045433;28;20099;-73
2023/09/11 11:15:14;;;;;;;17.75;4.38;;;;;;;;;;5044856;28;20036;-72
2023/09/11 11:17:40;;;;;;;12.40;4.55;;;;;;;;;;5043808;28;20472;-73
2023/09/11 11:20:07;;;;;;;13.38;4.45;;;;;;;;;;5047324;28;20539;-73
2023/09/11 11:22:33;;;;;;;14.63;4.22;;;;;;;;;;5046806;28;20090;-73
2023/09/11 11:25:00;;;;;;;21.38;4.80;;;;;;;;;;5044598;28;20013;-73
2023/09/11 11:27:25;;;;;;;11.02;4.85;;;;;;;;;;5045377;28;20029;-73
2023/09/11 11:29:52;;;;;;;14.70;4.88;;;;;;;;;;5043726;28;20026;-73
2023/09/11 11:32:20;;;;;;;11.73;4.82;;;;;;;;;;5028925;28;20033;-73
2023/09/11 11:34:45;;;;;;;12.30;4.60;;;;;;;;;;5032495;28;20341;-73
2023/09/11 11:37:11;;;;;;;19.27;6.25;;;;;;;;;;5030755;28;20114;-73
2023/09/11 11:39:39;;;;;;;18.30;4.97;;;;;;;;;;5033761;28;20132;-73
2023/09/11 11:42:05;;;;;;;12.30;5.07;;;;;;;;;;5036954;28;20032;-73
2023/09/11 11:44:33;;;;;;;11.93;4.82;;;;;;;;;;5031768;28;20049;-73
2023/09/11 11:46:58;;;;;;;15.38;5.07;;;;;;;;;;5033029;28;20025;-73
2023/09/11 11:49:24;;;;;;;15.57;5.03;;;;;;;;;;5032280;28;20017;-73
2023/09/11 11:51:50;;;;;;;12.97;5.20;;;;;;;;;;5029041;28;20506;-73
2023/09/11 11:54:25;;;;;;;14.45;5.38;;;;;;;;;;5033296;28;20029;-73
2023/09/11 11:56:57;;;;;;;9.98;5.00;;;;;;;;;;5032802;28;20394;-73
2023/09/11 11:59:23;;;;;;;11.90;4.70;;;;;;;;;;5030514;28;20041;-73
2023/09/11 12:01:48;;;;;;;14.65;4.50;;;;;;;;;;5029572;28;20028;-73
2023/09/11 12:04:13;;;;;;;11.65;4.55;;;;;;;;;;5034197;28;20024;-73
2023/09/11 12:06:39;;;;;;;18.67;5.73;;;;;;;;;;5031671;28;20040;-73
2023/09/11 12:09:04;;;;;;;10.57;4.82;;;;;;;;;;5032853;28;20021;-73
2023/09/11 12:11:30;;;;;;;16.53;4.77;;;;;;;;;;5030044;28;20032;-73
2023/09/11 12:13:56;;;;;;;10.45;4.32;;;;;;;;;;5030232;28;20284;-73
2023/09/11 12:16:21;;;;;;;18.42;5.88;;;;;;;;;;5029589;28;20070;-73
2023/09/11 12:18:46;;;;;;;33.58;5.63;;;;;;;;;;5032596;28;20065;-73
2023/09/11 12:21:12;;;;;;;14.93;4.35;;;;;;;;;;5029132;28;20391;-73
2023/09/11 12:23:37;;;;;;;8.43;4.10;;;;;;;;;;5029901;28;20014;-73
2023/09/11 12:26:03;;;;;;;15.60;4.70;;;;;;;;;;5032773;28;20068;-73
2023/09/11 12:28:28;;;;;;;13.23;4.63;;;;;;;;;;5030095;28;20283;-73
2023/09/11 12:30:54;;;;;;;15.55;4.65;;;;;;;;;;5030253;28;20018;-73
2023/09/11 12:33:23;;;;;;;15.05;5.07;;;;;;;;;;5031296;28;20538;-73
2023/09/11 12:35:51;;;;;;;18.55;5.55;;;;;;;;;;5031098;28;20113;-73
2023/09/11 12:38:17;;;;;;;12.32;3.83;;;;;;;;;;5032079;28;20034;-73
2023/09/11 12:40:42;;;;;;;12.07;5.88;;;;;;;;;;5028368;28;20047;-72
2023/09/11 12:43:07;;;;;;;11.67;4.77;;;;;;;;;;5027488;28;20035;-73
2023/09/11 12:45:33;;;;;;;23.15;5.32;;;;;;;;;;5030215;28;20515;-73
2023/09/11 12:47:58;;;;;;;13.52;4.40;;;;;;;;;;5031173;28;20028;-73
2023/09/11 12:50:24;;;;;;;15.50;4.90;;;;;;;;;;5029153;28;20033;-73
2023/09/11 12:52:50;;;;;;;10.98;5.30;;;;;;;;;;5030282;28;20036;-73
2023/09/11 12:55:15;;;;;;;16.33;5.95;;;;;;;;;;5032651;28;20021;-73
2023/09/11 12:57:40;;;;;;;15.33;5.00;;;;;;;;;;5031095;28;20520;-73
2023/09/11 13:00:08;;;;;;;13.65;5.40;;;;;;;;;;5031356;28;20025;-73
2023/09/11 13:02:33;;;;;;;13.55;5.05;;;;;;;;;;5028327;28;20120;-73
2023/09/11 13:04:58;;;;;;;19.67;4.83;;;;;;;;;;5030785;28;20025;-72
2023/09/11 13:07:24;;;;;;;14.38;5.53;;;;;;;;;;5030511;28;20376;-73
2023/09/11 13:09:49;;;;;;;11.02;4.60;;;;;;;;;;5030076;28;20033;-73
2023/09/11 13:12:15;;;;;;;17.30;5.25;;;;;;;;;;5033018;28;20022;-73
2023/09/11 13:14:40;;;;;;;28.35;6.55;;;;;;;;;;5030022;28;20033;-74
2023/09/11 13:17:05;;;;;;;23.87;5.63;;;;;;;;;;5033966;28;20516;-74
2023/09/11 13:19:30;;;;;;;16.92;5.90;;;;;;;;;;5029995;28;20017;-74
2023/09/11 13:21:56;;;;;;;13.20;5.93;;;;;;;;;;5030184;28;20070;-73
2023/09/11 13:24:21;;;;;;;11.43;5.80;;;;;;;;;;5031544;28;20317;-74
2023/09/11 13:26:46;;;;;;;17.73;5.07;;;;;;;;;;5025388;28;20488;-74
2023/09/11 13:29:13;;;;;;;16.50;5.00;;;;;;;;;;5028877;28;20264;-74
2023/09/11 13:31:38;;;;;;;17.05;6.05;;;;;;;;;;5027155;28;20025;-73
2023/09/11 13:34:03;;;;;;;11.53;4.80;;;;;;;;;;5028960;28;20400;-74
2023/09/11 13:36:29;;;;;;;15.15;5.05;;;;;;;;;;5024344;28;20029;-74
2023/09/11 13:38:54;;;;;;;19.93;5.63;;;;;;;;;;5030472;28;20049;-75
2023/09/11 13:41:19;;;;;;;16.10;5.20;;;;;;;;;;5029389;28;20017;-74
2023/09/11 13:43:44;;;;;;;17.53;6.17;;;;;;;;;;5030816;28;20029;-74
2023/09/11 13:46:09;;;;;;;13.70;5.50;;;;;;;;;;5034666;28;20024;-74
2023/09/11 13:48:35;;;;;;;11.83;5.20;;;;;;;;;;5027793;28;20256;-74
2023/09/11 13:51:00;;;;;;;17.60;5.30;;;;;;;;;;5032509;28;20332;-74
2023/09/11 13:53:25;;;;;;;14.90;6.20;;;;;;;;;;5030845;28;20028;-74
2023/09/11 13:55:50;;;;;;;17.83;8.07;;;;;;;;;;5030695;28;20295;-73
2023/09/11 13:58:15;;;;;;;13.90;5.93;;;;;;;;;;5027312;28;20475;-74
2023/09/11 14:00:41;;;;;;;21.03;5.50;;;;;;;;;;5029692;28;20807;-74
2023/09/11 14:03:06;;;;;;;14.30;5.33;;;;;;;;;;5026754;28;20017;-74
2023/09/11 14:05:31;;;;;;;14.23;7.37;;;;;;;;;;5028897;28;20279;-74
2023/09/11 14:07:56;;;;;;;12.10;5.57;;;;;;;;;;5028112;28;20068;-74
2023/09/11 14:10:21;;;;;;;17.93;5.27;;;;;;;;;;5032539;28;20022;-74
2023/09/11 14:12:47;;;;;;;17.97;6.23;;;;;;;;;;5030306;28;20280;-74
2023/09/11 14:15:12;;;;;;;16.90;5.30;;;;;;;;;;5027547;28;20544;-74
2023/09/11 14:17:37;;;;;;;15.27;5.47;;;;;;;;;;5021677;28;20018;-74
2023/09/11 14:20:03;;;;;;;15.25;6.68;;;;;;;;;;5029199;28;20029;-74
2023/09/11 14:22:28;;;;;;;15.48;5.65;;;;;;;;;;5031173;28;20018;-74